Airfield :
LOGIN :

Register | Disclaimer

   EN    FR    IT 

 










Legend :    VFR   Marginal VFR   IFR   Intensive IFR   Very Intensive IFR
Visi :
Ceiling :
>= 8 km
>= 3000ft
5 to 8 km
1000 to 3000 ft
1500m to 5 km
500 to 1000 ft
800 to 1500m
200 to 500 ft
< 800m
< 200 ft
Symbols :   Thunderstorms  Fog  Heavy snow  Heavy precipitations  Wind > 20 kt
SIGMETs :     Misc.  Thunderstorms  Icing  Turbulence  Mountain Waves  Volcanic Ashes







- Airport Elevation : 231 ft
- IATA code : WTN


EGXW - RAF Waddington

CURRENT METAR :
  • 210250Z 15003KT 0300 FG BKN000 07/07 Q1019 RED

EXPIRED METARs :
  • 210214Z 13006KT 0600 FG BKN000 08/07 Q1019 RED
  • 210150Z 13008KT 3000 BR FEW001 08/08 Q1020 YLO1
  • 210050Z 12007KT 7000 BR SKC 08/08 Q1020 WHT

TAF TAF EGXW
Valid from the 21 at 03:00 until the 21 at 21:00 UTC


210130Z 2103/2121 11007KT 5000 BR NSC
PROB40 2103/2107 0500 FG OVC000
BECMG 2107/2109 9999 NSW
No reported NOTAMs for that airfield.



MET'MAP, your aeronautical weather chart ! - Copyright ORBIFLY December 2007 - Disclaimer

ORBIFLY MET'MAP TEAM :

Programming & Development : Alexandra Zaïnal
Concept & Development : Baudouin d'Aumeries
Co-Development & Prog : Marc-Olivier Méhu
Technical & hardware support : Manuel Goepfert

Contact : metmap@orbifly.com




SOURCES & CREDITS :

   NOAA